createdAt,value
2019-04-14T00:02:31.716Z,98679.42
2019-04-14T00:05:01.790Z,98678.34
2019-04-14T00:07:30.355Z,98673.56
2019-04-14T00:10:02.952Z,98673.04
2019-04-14T00:12:31.663Z,98674.89
2019-04-14T00:14:59.866Z,98671.98
2019-04-14T00:17:28.333Z,98675.22
2019-04-14T00:19:56.649Z,98674.41
2019-04-14T00:22:27.557Z,98671.77
2019-04-14T00:24:55.357Z,98669.33
2019-04-14T00:27:23.879Z,98666.42
2019-04-14T00:29:52.820Z,98662.67
2019-04-14T00:32:22.687Z,98661.88
2019-04-14T00:35:06.316Z,98658.95
2019-04-14T00:37:42.482Z,98651.48
2019-04-14T00:40:19.307Z,98648.27
2019-04-14T00:43:07.395Z,98650.41
2019-04-14T00:45:48.214Z,98643.20
2019-04-14T00:48:17.531Z,98645.31
2019-04-14T00:50:43.831Z,98643.45
2019-04-14T00:53:12.145Z,98639.98
2019-04-14T00:55:40.551Z,98646.89
2019-04-14T00:58:08.554Z,98646.63
2019-04-14T01:00:36.463Z,98630.88
2019-04-14T01:03:04.788Z,98638.09
2019-04-14T01:05:34.398Z,98629.80
2019-04-14T01:08:03.112Z,98628.76
2019-04-14T01:10:30.650Z,98629.02
2019-04-14T01:12:58.200Z,98627.14
2019-04-14T01:15:26.741Z,98627.15
2019-04-14T01:17:54.979Z,98626.09
2019-04-14T01:20:23.205Z,98636.22
2019-04-14T01:22:51.008Z,98629.28
2019-04-14T01:25:19.266Z,98641.02
2019-04-14T01:28:06.862Z,98634.88
2019-04-14T01:30:35.129Z,98635.14
2019-04-14T01:33:03.333Z,98638.86
2019-04-14T01:35:31.433Z,98640.45
2019-04-14T01:37:59.433Z,98642.34
2019-04-14T01:40:29.200Z,98636.46
2019-04-14T01:42:57.323Z,98650.59
2019-04-14T01:45:25.334Z,98651.67
2019-04-14T01:47:53.379Z,98651.67
2019-04-14T01:50:25.567Z,98659.94
2019-04-14T01:52:59.576Z,98651.67
2019-04-14T01:56:05.647Z,98644.72
2019-04-14T01:58:49.040Z,98649.01
2019-04-14T02:01:21.723Z,98637.80
2019-04-14T02:03:49.958Z,98651.39
2019-04-14T02:06:18.051Z,98656.43
2019-04-14T02:08:45.894Z,98652.95
2019-04-14T02:11:15.764Z,98661.76
2019-04-14T02:13:44.257Z,98658.05
2019-04-14T02:16:22.985Z,98661.76
2019-04-14T02:18:42.624Z,98662.58
2019-04-14T02:21:12.850Z,98658.05
2019-04-14T02:23:41.203Z,98657.24
2019-04-14T02:26:09.215Z,98659.36
2019-04-14T02:28:39.573Z,98661.24
2019-04-14T02:31:17.713Z,98643.63
2019-04-14T02:33:58.769Z,98645.25
2019-04-14T02:36:41.745Z,98641.25
2019-04-14T02:39:08.625Z,98658.58
2019-04-14T02:41:35.736Z,98652.17
2019-04-14T02:44:04.625Z,98650.84
2019-04-14T02:46:39.979Z,98652.95
2019-04-14T02:49:08.305Z,98656.69
2019-04-14T02:51:33.681Z,98652.15
2019-04-14T02:54:09.949Z,98654.29
2019-04-14T02:56:30.881Z,98654.55
2019-04-14T02:59:01.789Z,98654.84
2019-04-14T03:01:31.667Z,98650.55
2019-04-14T03:04:16.289Z,98650.55
2019-04-14T03:06:26.046Z,98651.33
2019-04-14T03:11:31.189Z,98653.73
2019-04-14T03:14:01.291Z,98658.81
2019-04-14T03:19:06.449Z,98653.73
2019-04-14T03:22:37.246Z,98647.59
2019-04-14T03:24:57.201Z,98645.72
2019-04-14T03:30:46.231Z,98642.79
2019-04-14T03:37:50.747Z,98649.48
2019-04-14T03:40:18.599Z,98654.78
2019-04-14T03:42:43.831Z,98655.30
2019-04-14T03:45:14.428Z,98668.92
2019-04-14T03:47:42.042Z,98661.70
2019-04-14T03:50:16.110Z,98656.38
2019-04-14T03:52:49.767Z,98657.70
2019-04-14T03:55:09.448Z,98649.45
2019-04-14T03:57:19.306Z,98647.05
2019-04-14T03:59:47.785Z,98646.78
2019-04-14T04:02:16.094Z,98651.56
2019-04-14T04:04:44.505Z,98645.72
2019-04-14T04:07:12.641Z,98644.91
2019-04-14T04:09:49.690Z,98651.56
2019-04-14T04:12:18.239Z,98655.30
2019-04-14T04:14:46.394Z,98663.30
2019-04-14T04:17:36.188Z,98664.89
2019-04-14T04:20:39.141Z,98662.77
2019-04-14T04:23:27.086Z,98662.77
2019-04-14T04:26:14.711Z,98664.11
2019-04-14T04:28:58.858Z,98669.66
2019-04-14T04:31:46.124Z,98671.28
2019-04-14T04:34:33.815Z,98669.70
2019-04-14T04:37:08.386Z,98668.11
2019-04-14T04:39:39.684Z,98673.69
2019-04-14T04:42:09.008Z,98672.88
2019-04-14T04:44:37.664Z,98674.21
2019-04-14T04:47:05.704Z,98676.61
2019-04-14T04:49:34.212Z,98681.13
2019-04-14T04:52:01.808Z,98684.87
2019-04-14T04:54:30.127Z,98691.53
2019-04-14T04:56:58.330Z,98689.94
2019-04-14T04:59:25.675Z,98689.94
2019-04-14T05:01:53.847Z,98694.75
2019-04-14T05:04:22.006Z,98695.27
2019-04-14T05:06:59.454Z,98694.20
2019-04-14T05:09:44.846Z,98692.61
2019-04-14T05:12:26.781Z,98694.20
2019-04-14T05:15:05.246Z,98697.13
2019-04-14T05:17:33.994Z,98692.87
2019-04-14T05:20:03.168Z,98700.86
2019-04-14T05:22:31.336Z,98701.11
2019-04-14T05:24:59.288Z,98700.59
2019-04-14T05:27:27.627Z,98710.19
2019-04-14T05:29:55.909Z,98709.67
2019-04-14T05:32:23.993Z,98704.89
2019-04-14T05:34:52.162Z,98704.34
2019-04-14T05:37:20.379Z,98711.00
2019-04-14T05:39:48.432Z,98712.63
2019-04-14T05:42:20.145Z,98715.25
2019-04-14T05:44:47.129Z,98713.11
2019-04-14T05:47:15.337Z,98719.00
2019-04-14T05:49:46.826Z,98725.40
2019-04-14T05:52:12.045Z,98719.80
2019-04-14T05:54:40.442Z,98722.18
2019-04-14T05:57:08.716Z,98723.81
2019-04-14T05:59:37.442Z,98728.58
2019-04-14T06:02:04.907Z,98725.14
2019-04-14T06:04:33.191Z,98733.14
2019-04-14T06:07:02.572Z,98725.14
2019-04-14T06:09:30.168Z,98733.17
2019-04-14T06:11:58.713Z,98732.88
2019-04-14T06:14:25.852Z,98737.98
2019-04-14T06:16:53.370Z,98738.77
2019-04-14T06:19:20.726Z,98740.66
2019-04-14T06:21:48.205Z,98741.69
2019-04-14T06:24:15.587Z,98737.70
2019-04-14T06:26:43.019Z,98737.98
2019-04-14T06:29:10.208Z,98743.58
2019-04-14T06:31:56.097Z,98749.17
2019-04-14T06:34:34.889Z,98741.69
2019-04-14T06:37:06.800Z,98740.13
2019-04-14T06:39:37.690Z,98742.80
2019-04-14T06:42:05.537Z,98745.50
2019-04-14T06:44:33.515Z,98748.69
2019-04-14T06:47:01.271Z,98745.51
2019-04-14T06:49:28.287Z,98751.13
2019-04-14T06:51:55.371Z,98754.88
2019-04-14T06:54:22.692Z,98745.28
2019-04-14T06:56:50.152Z,98739.69
2019-04-14T06:59:17.252Z,98739.97
2019-04-14T07:01:44.400Z,98743.48
2019-04-14T07:04:11.697Z,98740.81
2019-04-14T07:06:39.338Z,98742.67
2019-04-14T07:09:06.734Z,98733.63
2019-04-14T07:11:34.786Z,98733.56
2019-04-14T07:14:02.778Z,98739.72
2019-04-14T07:16:30.393Z,98733.86
2019-04-14T07:18:57.917Z,98738.90
2019-04-14T07:21:25.404Z,98740.23
2019-04-14T07:23:53.832Z,98743.48
2019-04-14T07:26:21.109Z,98742.41
2019-04-14T07:28:56.473Z,98744.30
2019-04-14T07:31:52.511Z,98741.36
2019-04-14T07:34:31.789Z,98743.77
2019-04-14T07:37:21.551Z,98741.10
2019-04-14T07:40:11.940Z,98748.03
2019-04-14T07:43:04.890Z,98746.70
2019-04-14T07:45:47.934Z,98735.48
2019-04-14T07:48:34.979Z,98730.95
2019-04-14T07:51:21.372Z,98733.63
2019-04-14T07:53:52.349Z,98736.02
2019-04-14T07:56:30.797Z,98735.50
2019-04-14T07:59:17.121Z,98735.77
2019-04-14T08:02:03.559Z,98738.98
2019-04-14T08:04:33.965Z,98737.92
2019-04-14T08:07:01.658Z,98737.66
2019-04-14T08:09:29.373Z,98745.94
2019-04-14T08:11:57.221Z,98744.59
2019-04-14T08:14:25.580Z,98739.80
2019-04-14T08:16:53.169Z,98745.41
2019-04-14T08:19:21.717Z,98746.48
2019-04-14T08:21:49.018Z,98750.48
2019-04-14T08:24:16.836Z,98752.08
2019-04-14T08:26:44.034Z,98755.30
2019-04-14T08:29:11.410Z,98754.75
2019-04-14T08:31:38.525Z,98751.03
2019-04-14T08:34:05.819Z,98756.64
2019-04-14T08:36:33.690Z,98749.69
2019-04-14T08:39:01.115Z,98747.82
2019-04-14T08:41:31.894Z,98746.48
2019-04-14T08:44:16.671Z,98748.88
2019-04-14T08:47:02.859Z,98749.95
2019-04-14T08:49:41.085Z,98756.37
2019-04-14T08:52:24.050Z,98754.22
2019-04-14T08:55:10.304Z,98756.36
2019-04-14T08:58:04.259Z,98757.21
2019-04-14T09:00:51.946Z,98753.19
2019-04-14T09:03:39.073Z,98751.87
2019-04-14T09:06:38.516Z,98750.27
2019-04-14T09:09:31.344Z,98752.66
2019-04-14T09:12:14.544Z,98746.52
2019-04-14T09:14:31.867Z,98756.38
2019-04-14T09:16:59.892Z,98760.13
2019-04-14T09:19:27.287Z,98759.86
2019-04-14T09:21:54.971Z,98756.95
2019-04-14T09:24:23.169Z,98698.45
2019-04-14T09:26:50.332Z,98762.55
2019-04-14T09:29:18.712Z,98765.48
2019-04-14T09:31:46.106Z,98767.08
2019-04-14T09:34:15.632Z,98768.67
2019-04-14T09:36:42.738Z,98769.73
2019-04-14T09:39:09.964Z,98768.13
2019-04-14T09:41:36.977Z,98767.32
2019-04-14T09:44:04.474Z,98765.45
2019-04-14T09:46:32.013Z,98757.70
2019-04-14T09:48:59.900Z,98762.26
2019-04-14T09:51:26.943Z,98763.88
2019-04-14T09:53:53.970Z,98756.13
2019-04-14T09:56:21.299Z,98763.86
2019-04-14T09:58:48.343Z,98762.28
2019-04-14T10:01:15.470Z,98758.53
2019-04-14T10:03:42.677Z,98756.11
2019-04-14T10:06:11.914Z,98763.84
2019-04-14T10:08:39.677Z,98765.17
2019-04-14T10:11:07.792Z,98757.66
2019-04-14T10:13:35.642Z,98767.30
2019-04-14T10:16:02.948Z,98764.08
2019-04-14T10:18:30.048Z,98772.37
2019-04-14T10:20:57.055Z,98770.49
2019-04-14T10:23:24.195Z,98767.30
2019-04-14T10:25:51.198Z,98760.07
2019-04-14T10:28:18.425Z,98763.82
2019-04-14T10:30:45.599Z,98758.20
2019-04-14T10:33:12.733Z,98759.02
2019-04-14T10:35:40.451Z,98755.77
2019-04-14T10:38:08.317Z,98757.37
2019-04-14T10:40:35.623Z,98754.70
2019-04-14T10:43:03.181Z,98760.04
2019-04-14T10:45:30.779Z,98759.47
2019-04-14T10:47:58.391Z,98769.11
2019-04-14T10:50:30.959Z,98759.75
2019-04-14T10:52:54.978Z,98758.16
2019-04-14T10:55:22.662Z,98758.69
2019-04-14T10:57:50.623Z,98756.25
2019-04-14T11:00:18.694Z,98757.59
2019-04-14T11:02:46.077Z,98757.05
2019-04-14T11:05:13.400Z,98753.03
2019-04-14T11:07:40.859Z,98750.10
2019-04-14T11:10:09.561Z,98749.56
2019-04-14T11:12:37.061Z,98753.30
2019-04-14T11:15:05.171Z,98755.97
2019-04-14T11:17:32.264Z,98757.29
2019-04-14T11:19:59.772Z,98754.36
2019-04-14T11:22:27.243Z,98756.20
2019-04-14T11:24:56.442Z,98749.54
2019-04-14T11:27:24.155Z,98757.25
2019-04-14T11:29:53.934Z,98753.50
2019-04-14T11:32:43.251Z,98755.92
2019-04-14T11:35:28.843Z,98755.11
2019-04-14T11:38:18.305Z,98758.55
2019-04-14T11:40:48.160Z,98756.87
2019-04-14T11:43:15.662Z,98760.84
2019-04-14T11:45:42.904Z,98763.78
2019-04-14T11:48:10.023Z,98757.09
2019-04-14T11:50:37.153Z,98754.17
2019-04-14T11:53:04.495Z,98753.66
2019-04-14T11:55:32.046Z,98752.63
2019-04-14T11:57:59.233Z,98756.13
2019-04-14T12:00:38.450Z,98761.75
2019-04-14T12:03:25.106Z,98756.90
2019-04-14T12:06:12.605Z,98758.23
2019-04-14T12:08:55.015Z,98766.21
2019-04-14T12:11:22.457Z,98764.60
2019-04-14T12:13:49.874Z,98763.03
2019-04-14T12:16:19.092Z,98759.28
2019-04-14T12:18:46.986Z,98774.23
2019-04-14T12:21:15.158Z,98777.92
2019-04-14T12:23:42.598Z,98773.58
2019-04-14T12:26:10.139Z,98777.73
2019-04-14T12:28:38.322Z,98771.30
2019-04-14T12:31:06.509Z,98772.61
2019-04-14T12:33:35.165Z,98774.20
2019-04-14T12:36:03.612Z,98768.48
2019-04-14T12:38:31.179Z,98767.63
2019-04-14T12:41:00.975Z,98768.96
2019-04-14T12:43:42.222Z,98760.12
2019-04-14T12:46:36.196Z,98768.44
2019-04-14T12:49:19.913Z,98759.56
2019-04-14T12:52:05.681Z,98762.98
2019-04-14T12:54:33.267Z,98757.38
2019-04-14T12:57:01.123Z,98767.31
2019-04-14T12:59:28.763Z,98764.30
2019-04-14T13:02:16.003Z,98765.61
2019-04-14T13:04:43.564Z,98772.37
2019-04-14T13:07:10.691Z,98766.23
2019-04-14T13:09:38.394Z,98765.98
2019-04-14T13:12:05.665Z,98762.04
2019-04-14T13:14:32.913Z,98766.14
2019-04-14T13:16:59.930Z,98766.17
2019-04-14T13:19:27.264Z,98776.35
2019-04-14T13:21:54.688Z,98768.06
2019-04-14T13:24:22.214Z,98773.09
2019-04-14T13:26:50.744Z,98774.70
2019-04-14T13:29:18.275Z,98773.17
2019-04-14T13:31:46.345Z,98777.11
2019-04-14T13:34:13.451Z,98775.97
2019-04-14T13:36:41.001Z,98772.20
2019-04-14T13:39:08.628Z,98765.56
2019-04-14T13:41:36.941Z,98765.34
2019-04-14T13:44:05.003Z,98773.87
2019-04-14T13:46:33.917Z,98769.83
2019-04-14T13:49:02.788Z,98767.13
2019-04-14T13:51:30.162Z,98772.20
2019-04-14T13:53:57.591Z,98768.44
2019-04-14T13:56:24.782Z,98766.81
2019-04-14T13:58:52.218Z,98773.52
2019-04-14T14:01:19.498Z,98764.66
2019-04-14T14:03:46.821Z,98766.90
2019-04-14T14:06:14.149Z,98769.68
2019-04-14T14:08:41.753Z,98764.93
2019-04-14T14:11:16.987Z,98761.73
2019-04-14T14:13:49.189Z,98767.08
2019-04-14T14:16:27.029Z,98769.17
2019-04-14T14:19:01.795Z,98769.16
2019-04-14T14:21:45.001Z,98785.45
2019-04-14T14:24:46.989Z,98777.66
2019-04-14T14:27:14.220Z,98776.58
2019-04-14T14:29:41.471Z,98775.82
2019-04-14T14:32:28.777Z,98769.94
2019-04-14T14:34:56.844Z,98779.50
2019-04-14T14:37:24.689Z,98780.09
2019-04-14T14:39:52.741Z,98779.86
2019-04-14T14:42:21.172Z,98781.00
2019-04-14T14:45:04.403Z,98775.06
2019-04-14T14:47:32.492Z,98782.03
2019-04-14T14:50:18.985Z,98779.86
2019-04-14T14:52:46.799Z,98776.07
2019-04-14T14:55:13.912Z,98779.84
2019-04-14T14:57:41.229Z,98780.92
2019-04-14T15:00:14.657Z,98787.06
2019-04-14T15:02:42.377Z,98785.20
2019-04-14T15:05:09.739Z,98779.91
2019-04-14T15:07:37.164Z,98784.45
2019-04-14T15:10:04.440Z,98797.87
2019-04-14T15:12:32.392Z,98791.73
2019-04-14T15:14:59.970Z,98790.44
2019-04-14T15:17:28.041Z,98793.06
2019-04-14T15:19:55.993Z,98791.64
2019-04-14T15:22:23.737Z,98783.25
2019-04-14T15:24:51.970Z,98777.16
2019-04-14T15:27:18.996Z,98787.89
2019-04-14T15:29:46.650Z,98790.88
2019-04-14T15:32:13.681Z,98791.43
2019-04-14T15:34:40.804Z,98799.28
2019-04-14T15:37:07.973Z,98799.88
2019-04-14T15:39:37.616Z,98803.67
2019-04-14T15:42:05.017Z,98802.59
2019-04-14T15:44:32.297Z,98798.05
2019-04-14T15:46:59.773Z,98794.90
2019-04-14T15:49:27.131Z,98806.94
2019-04-14T15:51:54.499Z,98814.17
2019-04-14T15:54:25.311Z,98812.34
2019-04-14T15:57:14.674Z,98813.92
2019-04-14T15:59:48.710Z,98818.47
2019-04-14T16:02:22.104Z,98818.22
2019-04-14T16:05:18.806Z,98824.12
2019-04-14T16:08:05.253Z,98816.92
2019-04-14T16:10:52.253Z,98826.31
2019-04-14T16:13:35.602Z,98833.28
2019-04-14T16:16:37.826Z,98827.66
2019-04-14T16:19:14.281Z,98826.86
2019-04-14T16:21:41.293Z,98841.59
2019-04-14T16:24:08.688Z,98839.70
2019-04-14T16:26:58.602Z,98839.19
2019-04-14T16:29:34.381Z,98846.93
2019-04-14T16:32:07.003Z,98839.45
2019-04-14T16:34:39.730Z,98846.14
2019-04-14T16:37:07.600Z,98842.66
2019-04-14T16:39:35.690Z,98839.19
2019-04-14T16:42:02.702Z,98851.77
2019-04-14T16:44:30.651Z,98854.16
2019-04-14T16:46:58.522Z,98857.89
2019-04-14T16:49:25.832Z,98859.23
2019-04-14T16:51:56.429Z,98861.37
2019-04-14T16:54:41.490Z,98863.52
2019-04-14T16:57:29.193Z,98867.27
2019-04-14T16:59:57.176Z,98870.74
2019-04-14T17:02:24.557Z,98880.10
2019-04-14T17:04:51.789Z,98880.88
2019-04-14T17:07:19.795Z,98878.45
2019-04-14T17:09:47.631Z,98881.39
2019-04-14T17:12:15.156Z,98887.81
2019-04-14T17:14:48.118Z,98891.82
2019-04-14T17:17:47.307Z,98893.98
2019-04-14T17:20:34.468Z,98893.69
2019-04-14T17:23:21.740Z,98891.04
2019-04-14T17:25:54.613Z,98902.02
2019-04-14T17:28:40.181Z,98909.73
2019-04-14T17:31:15.333Z,98918.30
2019-04-14T17:33:57.101Z,98927.37
2019-04-14T17:36:30.900Z,98922.05
2019-04-14T17:39:16.978Z,98930.33
2019-04-14T17:42:03.868Z,98941.82
2019-04-14T17:44:44.489Z,98935.98
2019-04-14T17:47:47.007Z,98944.48
2019-04-14T17:50:40.481Z,98950.36
2019-04-14T17:53:08.402Z,98950.38
2019-04-14T17:55:58.541Z,98953.03
2019-04-14T17:58:43.583Z,98958.39
2019-04-14T18:01:29.343Z,98955.42
2019-04-14T18:04:19.343Z,98960.75
2019-04-14T18:06:51.460Z,98941.25
2019-04-14T18:09:37.304Z,98962.88
2019-04-14T18:12:17.102Z,98973.05
2019-04-14T18:14:58.198Z,98977.55
2019-04-14T18:17:50.727Z,98984.48
2019-04-14T18:20:21.814Z,98977.00
2019-04-14T18:22:49.831Z,98980.80
2019-04-14T18:25:17.430Z,98988.02
2019-04-14T18:27:54.060Z,98996.27
2019-04-14T18:30:26.113Z,99001.09
2019-04-14T18:33:06.616Z,99006.17
2019-04-14T18:35:44.919Z,99012.85
2019-04-14T18:38:25.710Z,99017.67
2019-04-14T18:41:01.554Z,99019.00
2019-04-14T18:44:07.499Z,99020.34
2019-04-14T18:47:00.990Z,99025.97
2019-04-14T18:49:51.919Z,99019.82
2019-04-14T18:52:29.890Z,99028.39
2019-04-14T18:55:27.340Z,99045.23
2019-04-14T18:58:14.413Z,99025.95
2019-04-14T19:00:47.139Z,99053.30
2019-04-14T19:03:15.083Z,99047.95
2019-04-14T19:05:42.700Z,99062.63
2019-04-14T19:08:10.526Z,99060.74
2019-04-14T19:10:38.348Z,99064.20
2019-04-14T19:13:18.348Z,99064.95
2019-04-14T19:15:50.274Z,99068.95
2019-04-14T19:18:30.296Z,99063.61
2019-04-14T19:21:01.835Z,99065.24
2019-04-14T19:23:31.883Z,99071.17
2019-04-14T19:26:00.253Z,99076.23
2019-04-14T19:28:27.303Z,99076.75
2019-04-14T19:30:54.573Z,99077.30
2019-04-14T19:33:22.752Z,99080.78
2019-04-14T19:35:49.979Z,99087.17
2019-04-14T19:38:17.805Z,99084.55
2019-04-14T19:40:45.366Z,99093.10
2019-04-14T19:43:23.147Z,99093.63
2019-04-14T19:45:41.988Z,99091.77
2019-04-14T19:48:09.420Z,99093.92
2019-04-14T19:50:36.565Z,99097.93
2019-04-14T19:53:03.851Z,99102.20
2019-04-14T19:55:32.996Z,99104.35
2019-04-14T19:58:01.937Z,99108.06
2019-04-14T20:00:31.444Z,99106.17
2019-04-14T20:03:00.427Z,99119.02
2019-04-14T20:05:29.467Z,99109.11
2019-04-14T20:07:58.270Z,99112.86
2019-04-14T20:10:27.493Z,99113.94
2019-04-14T20:12:57.505Z,99118.76
2019-04-14T20:15:27.979Z,99114.78
2019-04-14T20:18:10.871Z,99112.11
2019-04-14T20:21:04.885Z,99116.15
2019-04-14T20:23:41.151Z,99114.81
2019-04-14T20:26:32.754Z,99121.78
2019-04-14T20:29:06.241Z,99124.22
2019-04-14T20:31:42.240Z,99129.56
2019-04-14T20:34:11.442Z,99126.34
2019-04-14T20:36:40.668Z,99130.63
2019-04-14T20:39:13.709Z,99132.16
2019-04-14T20:41:42.029Z,99141.02
2019-04-14T20:44:09.094Z,99142.03
2019-04-14T20:46:36.097Z,99142.09
2019-04-14T20:49:03.671Z,99156.19
2019-04-14T20:51:30.865Z,99152.73
2019-04-14T20:53:58.411Z,99151.91
2019-04-14T20:56:25.738Z,99155.36
2019-04-14T20:58:52.877Z,99113.34
2019-04-14T21:01:20.967Z,99150.23
2019-04-14T21:04:02.548Z,99148.86
2019-04-14T21:06:46.339Z,99142.22
2019-04-14T21:09:33.462Z,99148.60
2019-04-14T21:12:18.560Z,99151.02
2019-04-14T21:15:09.560Z,99149.16
2019-04-14T21:17:57.325Z,99148.59
2019-04-14T21:20:40.697Z,99156.09
2019-04-14T21:23:16.949Z,99154.76
2019-04-14T21:26:00.693Z,99157.95
2019-04-14T21:28:59.627Z,99161.44
2019-04-14T21:31:32.851Z,99164.38
2019-04-14T21:34:09.001Z,99164.67
2019-04-14T21:37:03.825Z,99166.27
2019-04-14T21:39:35.915Z,99168.94
2019-04-14T21:42:02.895Z,99168.38
2019-04-14T21:44:30.589Z,99166.47
2019-04-14T21:46:58.360Z,99173.16
2019-04-14T21:49:25.993Z,99178.19
2019-04-14T21:52:06.591Z,99188.58
2019-04-14T21:54:33.871Z,99191.75
2019-04-14T21:57:24.625Z,99189.62
2019-04-14T22:00:08.560Z,99183.98
2019-04-14T22:03:07.309Z,99186.34
2019-04-14T22:05:42.417Z,99194.57
2019-04-14T22:08:25.280Z,99197.19
2019-04-14T22:10:57.792Z,99201.45
2019-04-14T22:13:25.214Z,99197.44
2019-04-14T22:15:52.332Z,99199.27
2019-04-14T22:18:19.854Z,99205.69
2019-04-14T22:20:47.193Z,99201.94
2019-04-14T22:23:14.182Z,99197.91
2019-04-14T22:25:41.177Z,99206.46
2019-04-14T22:28:08.563Z,99203.25
2019-04-14T22:30:36.062Z,99203.78
2019-04-14T22:33:03.788Z,99204.84
2019-04-14T22:35:31.055Z,99198.94
2019-04-14T22:37:58.366Z,99200.26
2019-04-14T22:40:25.395Z,99204.22
2019-04-14T22:42:53.211Z,99197.84
2019-04-14T22:45:20.212Z,99194.88
2019-04-14T22:47:47.449Z,99199.97
2019-04-14T22:50:14.732Z,99195.70
2019-04-14T22:52:41.776Z,99192.76
2019-04-14T22:55:09.328Z,99192.49
2019-04-14T22:57:36.589Z,99197.52
2019-04-14T23:00:06.433Z,99196.75
2019-04-14T23:02:53.414Z,99198.09
2019-04-14T23:05:44.186Z,99190.84
2019-04-14T23:08:41.589Z,99192.44
2019-04-14T23:11:28.601Z,99194.27
2019-04-14T23:14:24.665Z,99194.25
2019-04-14T23:17:15.005Z,99200.37
2019-04-14T23:19:50.548Z,99202.02
2019-04-14T23:22:36.408Z,99204.62
2019-04-14T23:25:03.777Z,99201.44
2019-04-14T23:27:31.270Z,99199.53
2019-04-14T23:29:58.553Z,99197.36
2019-04-14T23:32:25.604Z,99197.09
2019-04-14T23:34:52.657Z,99200.83
2019-04-14T23:37:20.117Z,99201.08
2019-04-14T23:39:47.307Z,99192.52
2019-04-14T23:42:14.983Z,99189.59
2019-04-14T23:44:42.342Z,99192.77
2019-04-14T23:47:09.997Z,99196.50
2019-04-14T23:49:37.309Z,99189.59
2019-04-14T23:52:04.405Z,99184.54
2019-04-14T23:54:32.035Z,99185.59
2019-04-14T23:57:05.906Z,99179.16
2019-04-14T23:59:31.048Z,99181.78
